ENFB/FBU METAR and TAF weather

Enter ICAO airport designator
Station Type Date Time Source
ENFB METAR 2020/11/28 19:50 UTC NOAA

ENFB 281950Z AUTO 20024KT 9999NDV SCT022/// 09/04 Q1024 W///S5


Station Type Date Time Source
ENFB Decoded METAR 2020/11/28 19:50 UTC NOAA

Oslo / Fornebu, Norway (ENFB) 59-54N 010-38E 17M
Nov 28, 2020 - 02:50 PM EST / 2020.11.28 1950 UTC
Wind: from the SSW (200 degrees) at 28 MPH (24 KT):0
Sky conditions: partly cloudy
Temperature: 48 F (9 C)
Dew Point: 39 F (4 C)
Relative Humidity: 70%
Pressure (altimeter): 30.24 in. Hg (1024 hPa)
ob: ENFB 281950Z AUTO 20024KT 9999NDV SCT022/// 09/04 Q1024 W///S5
cycle: 20

Station Type Date Time Source
ENFB TAF UTC NOAA

Error!

Example: see airport list